SANTA FE DAM CA US current weather conditions

sailwx.info

Wind from 185 at 1 knots gusting 2

Air temperature 17.2° C
Dewpoint 16.6° C

Last reported at 2014-Jul-22 09:57 UTC.
Time now 2014-Jul-22 11:27 UTC

Location: N 34°08' W 117°57'.
View on Google Maps.

See reports from other nearby stations

  
Tides and Currents Weather Stations Pressure Air Temp Water Temp Dewpoint Dewpoint Depression Visibility Wind Speed Wind Dir Waves Ship Positions
date/time (UTC)wind fromknots sea level pressurealtimeterstation pressurevisibilityair tempwater tempwave heightnotes
2014-Jul-22 09:57 185 1 gusting 2 17.2
2014-Jul-22 08:57 249 3 gusting 5 18.3
2014-Jul-22 07:57 259 3 gusting 5 17.8
2014-Jul-22 06:57 271 1 gusting 4 18.9
2014-Jul-22 05:57 206 2 gusting 4 19.4
2014-Jul-22 04:57 220 2 gusting 5 19.4
2014-Jul-22 03:57 218 3 gusting 9 21.1
2014-Jul-22 02:57 215 6 gusting 13 24.4
2014-Jul-22 01:57 214 8 gusting 14 27.2
2014-Jul-22 00:57 221 8 gusting 16 28.9
2014-Jul-21 23:57 223 9 gusting 18 30.0
2014-Jul-21 22:57 219 7 gusting 14 31.1
2014-Jul-21 21:57 240 9 gusting 17 30.6
2014-Jul-21 20:57 228 6 gusting 13 31.1
2014-Jul-21 19:57 234 6 gusting 13 31.1
2014-Jul-21 18:57 271 4 gusting 12 29.4
2014-Jul-21 17:57 252 6 gusting 13 25.6
2014-Jul-21 16:57 265 4 gusting 8 24.4
2014-Jul-21 15:57 240 4 gusting 9 22.8
2014-Jul-21 14:57 359 1 gusting 4 23.3
2014-Jul-21 13:57 285 0 gusting 3 18.9
2014-Jul-21 12:57 014 0 gusting 3 16.1
2014-Jul-21 11:57 259 1 gusting 3 16.1
2014-Jul-21 10:57 263 2 gusting 3 16.7
2014-Jul-21 09:57 333 2 gusting 3 16.7
2014-Jul-21 08:57 032 0 gusting 3 16.7
2014-Jul-21 07:57 193 2 gusting 3 17.2
2014-Jul-21 06:57 222 2 gusting 4 18.3
2014-Jul-21 05:57 227 3 gusting 6 19.4
2014-Jul-21 04:57 225 3 gusting 7 19.4
2014-Jul-21 03:57 238 5 gusting 10 20.6
2014-Jul-21 02:57 227 6 gusting 15 22.8
2014-Jul-21 01:57 230 7 gusting 14 26.1
2014-Jul-21 00:57 221 7 gusting 13 29.4
2014-Jul-20 23:57 231 7 gusting 15 30.6
2014-Jul-20 22:57 229 8 gusting 17 31.1
2014-Jul-20 21:57 245 6 gusting 16 31.1
2014-Jul-20 20:57 209 6 gusting 13 28.9
2014-Jul-20 13:57 110 1 gusting 3 19.4
2014-Jul-20 12:57 148 0 gusting 3 19.4
2014-Jul-20 11:57 312 1 gusting 4 18.3